createdAt,value
2022-11-24T00:06:46.589Z,14.4
2022-11-24T00:11:46.594Z,14.4
2022-11-24T00:21:46.649Z,14.4
2022-11-24T00:31:46.609Z,14.4
2022-11-24T00:41:46.648Z,14.4
2022-11-24T00:51:46.732Z,14.4
2022-11-24T01:01:46.751Z,14.4
2022-11-24T01:06:46.644Z,14.4
2022-11-24T01:16:46.644Z,14.4
2022-11-24T01:26:46.669Z,14.4
2022-11-24T01:31:46.717Z,14.4
2022-11-24T01:41:46.620Z,14.4
2022-11-24T01:46:46.671Z,14.4
2022-11-24T01:56:46.644Z,14.4
2022-11-24T02:06:46.694Z,14.4
2022-11-24T02:16:46.643Z,14.4
2022-11-24T02:26:46.670Z,14.4
2022-11-24T02:36:46.646Z,14.4
2022-11-24T02:41:46.684Z,14.4
2022-11-24T02:51:46.654Z,14.4
2022-11-24T03:01:46.704Z,14.4
2022-11-24T03:06:46.850Z,14.4
2022-11-24T03:16:46.685Z,14.4
2022-11-24T03:26:46.683Z,14.4
2022-11-24T03:36:46.684Z,14.3
2022-11-24T03:41:46.676Z,14.3
2022-11-24T03:46:46.729Z,14.4
2022-11-24T03:56:46.732Z,14.4
2022-11-24T04:06:46.660Z,14.4
2022-11-24T04:11:46.655Z,14.3
2022-11-24T04:21:46.715Z,14.4
2022-11-24T04:31:46.803Z,14.3
2022-11-24T04:41:46.709Z,14.3
2022-11-24T04:51:46.686Z,14.4
2022-11-24T05:01:46.906Z,14.3
2022-11-24T05:11:46.704Z,14.4
2022-11-24T05:16:46.723Z,14.4
2022-11-24T05:26:46.698Z,14.3
2022-11-24T05:31:47.016Z,14.4
2022-11-24T05:41:46.706Z,14.4
2022-11-24T05:51:46.712Z,14.3
2022-11-24T05:56:46.685Z,14.3
2022-11-24T06:01:46.855Z,14.3
2022-11-24T06:11:46.753Z,14.4
2022-11-24T06:16:46.812Z,14.3
2022-11-24T06:26:46.700Z,14.4
2022-11-24T06:36:46.741Z,14.4
2022-11-24T06:46:46.709Z,14.4
2022-11-24T06:51:46.697Z,14.3
2022-11-24T07:01:46.718Z,14.3
2022-11-24T07:06:46.754Z,14.4
2022-11-24T07:16:46.847Z,14.4
2022-11-24T07:26:46.757Z,14.4
2022-11-24T07:36:46.739Z,14.3
2022-11-24T07:46:46.752Z,14.4
2022-11-24T07:51:46.744Z,14.4
2022-11-24T08:01:46.843Z,14.4
2022-11-24T08:06:47.547Z,14.4
2022-11-24T08:16:46.869Z,14.4
2022-11-24T08:26:46.801Z,14.4
2022-11-24T08:36:46.750Z,14.4
2022-11-24T08:41:46.781Z,14.4
2022-11-24T08:51:46.772Z,14.4
2022-11-24T08:56:46.775Z,14.3
2022-11-24T09:06:46.747Z,14.4
2022-11-24T09:11:46.791Z,14.4
2022-11-24T09:21:46.742Z,14.4
2022-11-24T09:26:47.852Z,14.4
2022-11-24T09:36:46.790Z,14.4
2022-11-24T09:41:46.765Z,14.4
2022-11-24T09:51:46.776Z,14.4
2022-11-24T10:01:47.086Z,14.4
2022-11-24T10:11:46.760Z,14.4
2022-11-24T10:16:46.764Z,14.4
2022-11-24T10:26:46.833Z,14.4
2022-11-24T10:36:47.039Z,14.4
2022-11-24T10:46:46.849Z,14.5
2022-11-24T10:51:46.797Z,14.5
2022-11-24T11:01:46.866Z,14.5
2022-11-24T11:06:46.815Z,14.5
2022-11-24T11:16:46.799Z,14.5
2022-11-24T11:26:46.834Z,14.5
2022-11-24T11:36:46.819Z,14.5
2022-11-24T11:46:46.946Z,14.6
2022-11-24T11:56:46.814Z,14.5
2022-11-24T12:06:46.816Z,14.6
2022-11-24T12:11:46.819Z,14.5
2022-11-24T12:21:46.841Z,14.6
2022-11-24T12:31:46.899Z,14.6
2022-11-24T12:36:46.822Z,14.6
2022-11-24T12:46:46.859Z,14.6
2022-11-24T12:51:46.852Z,14.6
2022-11-24T12:56:46.842Z,14.6
2022-11-24T13:06:49.299Z,14.6
2022-11-24T13:17:06.148Z,14.7
2022-11-24T13:21:46.819Z,14.7
2022-11-24T13:26:46.834Z,14.6
2022-11-24T13:36:46.849Z,14.7
2022-11-24T13:46:46.920Z,14.4
2022-11-24T13:56:46.874Z,14.7
2022-11-24T14:06:46.831Z,14.7
2022-11-24T14:16:46.867Z,14.7
2022-11-24T14:26:46.851Z,14.7
2022-11-24T14:36:46.856Z,14.8
2022-11-24T14:46:46.889Z,14.7
2022-11-24T14:56:46.906Z,14.7
2022-11-24T15:06:46.886Z,14.7
2022-11-24T15:16:47.035Z,14.7
2022-11-24T15:21:46.873Z,14.7
2022-11-24T15:31:52.366Z,14.7
2022-11-24T15:41:46.908Z,14.7
2022-11-24T15:51:46.838Z,14.7
2022-11-24T15:56:46.858Z,14.7
2022-11-24T16:06:46.878Z,14.7
2022-11-24T16:11:46.855Z,14.6
2022-11-24T16:21:47.001Z,14.7
2022-11-24T16:31:47.032Z,14.6
2022-11-24T16:41:46.868Z,14.8
2022-11-24T16:46:46.913Z,14.9
2022-11-24T16:56:46.936Z,15.1
2022-11-24T17:01:47.056Z,15.2
2022-11-24T17:06:46.914Z,15.3
2022-11-24T17:16:47.056Z,15.4
2022-11-24T17:26:49.080Z,15.4
2022-11-24T17:31:46.987Z,15.1
2022-11-24T17:36:46.949Z,15.1
2022-11-24T17:46:46.955Z,15.1
2022-11-24T17:51:47.003Z,15.1
2022-11-24T18:01:46.995Z,15.1
2022-11-24T18:11:46.966Z,15
2022-11-24T18:21:46.982Z,15
2022-11-24T18:31:46.986Z,15
2022-11-24T18:36:46.953Z,15
2022-11-24T18:41:46.968Z,15
2022-11-24T18:46:46.975Z,14.9
2022-11-24T18:56:46.934Z,14.9
2022-11-24T19:01:47.093Z,14.9
2022-11-24T19:11:46.974Z,14.9
2022-11-24T19:21:47.112Z,14.9
2022-11-24T19:31:47.091Z,14.9
2022-11-24T19:41:47.043Z,14.9
2022-11-24T19:51:46.999Z,14.8
2022-11-24T19:56:47.024Z,14.8
2022-11-24T20:06:47.067Z,14.8
2022-11-24T20:16:47.124Z,14.8
2022-11-24T20:26:47.054Z,14.7
2022-11-24T20:36:47.000Z,14.7
2022-11-24T20:41:47.035Z,14.7
2022-11-24T20:51:47.127Z,14.7
2022-11-24T21:01:47.186Z,14.7
2022-11-24T21:06:47.034Z,14.7
2022-11-24T21:16:47.117Z,14.7
2022-11-24T21:26:47.046Z,14.7
2022-11-24T21:31:47.133Z,14.7
2022-11-24T21:36:47.109Z,14.7
2022-11-24T21:46:52.627Z,14.7
2022-11-24T21:51:47.062Z,14.7
2022-11-24T21:56:47.061Z,14.7
2022-11-24T22:01:47.139Z,14.7
2022-11-24T22:11:47.066Z,14.7
2022-11-24T22:16:47.262Z,14.6
2022-11-24T22:26:47.059Z,14.6
2022-11-24T22:36:47.111Z,14.6
2022-11-24T22:46:47.055Z,14.6
2022-11-24T22:51:47.065Z,14.6
2022-11-24T23:01:47.092Z,14.5
2022-11-24T23:11:47.073Z,14.6
2022-11-24T23:16:47.132Z,14.6
2022-11-24T23:26:47.111Z,14.6
2022-11-24T23:36:47.066Z,14.5
2022-11-24T23:46:47.101Z,14.5
2022-11-24T23:51:47.125Z,14.5
